sensor_id;sensor_type;location;lat;lon;timestamp;pressure;altitude;pressure_sealevel;temperature
15544;BMP180;7873;52.230;12.856;2023-10-31T00:00:50;98814.28;;;24.04
15544;BMP180;7873;52.230;12.856;2023-10-31T00:03:16;98816.13;;;24.04
15544;BMP180;7873;52.230;12.856;2023-10-31T00:05:43;98816.13;;;24.04
15544;BMP180;7873;52.230;12.856;2023-10-31T00:08:11;98810.16;;;24.02
15544;BMP180;7873;52.230;12.856;2023-10-31T00:10:37;98804.78;;;24.02
15544;BMP180;7873;52.230;12.856;2023-10-31T00:13:03;98800.25;;;24.02
15544;BMP180;7873;52.230;12.856;2023-10-31T00:15:30;98801.25;;;24.01
15544;BMP180;7873;52.230;12.856;2023-10-31T00:17:56;98799.41;;;24.02
15544;BMP180;7873;52.230;12.856;2023-10-31T00:20:23;98785.38;;;24.00
15544;BMP180;7873;52.230;12.856;2023-10-31T00:22:49;98790.75;;;24.00
15544;BMP180;7873;52.230;12.856;2023-10-31T00:25:17;98783.50;;;24.00
15544;BMP180;7873;52.230;12.856;2023-10-31T00:27:45;98795.31;;;23.99
15544;BMP180;7873;52.230;12.856;2023-10-31T00:30:11;98782.91;;;23.98
15544;BMP180;7873;52.230;12.856;2023-10-31T00:32:38;98787.69;;;23.96
15544;BMP180;7873;52.230;12.856;2023-10-31T00:35:05;98792.28;;;23.96
15544;BMP180;7873;52.230;12.856;2023-10-31T00:37:32;98792.28;;;23.96
15544;BMP180;7873;52.230;12.856;2023-10-31T00:39:58;98789.78;;;23.94
15544;BMP180;7873;52.230;12.856;2023-10-31T00:42:26;98785.00;;;23.96
15544;BMP180;7873;52.230;12.856;2023-10-31T00:44:52;98783.97;;;23.97
15544;BMP180;7873;52.230;12.856;2023-10-31T00:47:19;98772.88;;;23.94
15544;BMP180;7873;52.230;12.856;2023-10-31T00:49:45;98772.88;;;23.94
15544;BMP180;7873;52.230;12.856;2023-10-31T00:52:12;98761.28;;;23.93
15544;BMP180;7873;52.230;12.856;2023-10-31T00:54:39;98746.22;;;23.92
15544;BMP180;7873;52.230;12.856;2023-10-31T00:57:05;98734.88;;;23.90
15544;BMP180;7873;52.230;12.856;2023-10-31T00:59:33;98723.53;;;23.88
15544;BMP180;7873;52.230;12.856;2023-10-31T01:02:00;98720.84;;;23.88
15544;BMP180;7873;52.230;12.856;2023-10-31T01:04:26;98720.84;;;23.88
15544;BMP180;7873;52.230;12.856;2023-10-31T01:06:52;98730.53;;;23.89
15544;BMP180;7873;52.230;12.856;2023-10-31T01:09:19;98743.16;;;23.89
15544;BMP180;7873;52.230;12.856;2023-10-31T01:11:45;98753.09;;;23.88
15544;BMP180;7873;52.230;12.856;2023-10-31T01:14:12;98760.78;;;23.85
15544;BMP180;7873;52.230;12.856;2023-10-31T01:16:40;98758.94;;;23.85
15544;BMP180;7873;52.230;12.856;2023-10-31T01:19:07;98761.84;;;23.84
15544;BMP180;7873;52.230;12.856;2023-10-31T01:21:33;98771.78;;;23.83
15544;BMP180;7873;52.230;12.856;2023-10-31T01:24:00;98767.47;;;23.83
15544;BMP180;7873;52.230;12.856;2023-10-31T01:26:26;98757.75;;;23.82
15544;BMP180;7873;52.230;12.856;2023-10-31T01:28:53;98755.06;;;23.82
15544;BMP180;7873;52.230;12.856;2023-10-31T01:31:19;98755.25;;;23.80
15544;BMP180;7873;52.230;12.856;2023-10-31T01:33:47;98756.09;;;23.80
15544;BMP180;7873;52.230;12.856;2023-10-31T01:36:14;98737.91;;;23.83
15544;BMP180;7873;52.230;12.856;2023-10-31T01:38:40;98726.69;;;23.85
15544;BMP180;7873;52.230;12.856;2023-10-31T01:41:07;98713.25;;;23.85
15544;BMP180;7873;52.230;12.856;2023-10-31T01:43:34;98705.53;;;23.89
15544;BMP180;7873;52.230;12.856;2023-10-31T01:46:01;98706.56;;;23.88
15544;BMP180;7873;52.230;12.856;2023-10-31T01:48:29;98696.06;;;23.86
15544;BMP180;7873;52.230;12.856;2023-10-31T01:50:59;98686.38;;;23.85
15544;BMP180;7873;52.230;12.856;2023-10-31T01:53:26;98684.28;;;23.87
15544;BMP180;7873;52.230;12.856;2023-10-31T01:55:55;98680.16;;;23.85
15544;BMP180;7873;52.230;12.856;2023-10-31T01:58:25;98677.13;;;23.82
15544;BMP180;7873;52.230;12.856;2023-10-31T02:00:54;98664.50;;;23.82
15544;BMP180;7873;52.230;12.856;2023-10-31T02:03:21;98654.59;;;23.83
15544;BMP180;7873;52.230;12.856;2023-10-31T02:05:48;98650.00;;;23.83
15544;BMP180;7873;52.230;12.856;2023-10-31T02:08:16;98648.00;;;23.78
15544;BMP180;7873;52.230;12.856;2023-10-31T02:10:42;98649.50;;;23.74
15544;BMP180;7873;52.230;12.856;2023-10-31T02:13:12;98656.38;;;23.71
15544;BMP180;7873;52.230;12.856;2023-10-31T02:15:38;98656.16;;;23.72
15544;BMP180;7873;52.230;12.856;2023-10-31T02:18:05;98664.69;;;23.69
15544;BMP180;7873;52.230;12.856;2023-10-31T02:20:32;98660.97;;;23.70
15544;BMP180;7873;52.230;12.856;2023-10-31T02:23:00;98659.06;;;23.71
15544;BMP180;7873;52.230;12.856;2023-10-31T02:25:27;98660.72;;;23.72
15544;BMP180;7873;52.230;12.856;2023-10-31T02:27:53;98660.13;;;23.70
15544;BMP180;7873;52.230;12.856;2023-10-31T02:30:20;98660.13;;;23.70
15544;BMP180;7873;52.230;12.856;2023-10-31T02:32:47;98654.75;;;23.70
15544;BMP180;7873;52.230;12.856;2023-10-31T02:35:15;98652.91;;;23.70
15544;BMP180;7873;52.230;12.856;2023-10-31T02:37:43;98653.00;;;23.75
15544;BMP180;7873;52.230;12.856;2023-10-31T02:40:11;98656.75;;;23.74
15544;BMP180;7873;52.230;12.856;2023-10-31T02:42:38;98649.97;;;23.72
15544;BMP180;7873;52.230;12.856;2023-10-31T02:45:05;98645.63;;;23.71
15544;BMP180;7873;52.230;12.856;2023-10-31T02:47:32;98646.59;;;23.76
15544;BMP180;7873;52.230;12.856;2023-10-31T02:49:58;98640.16;;;23.77
15544;BMP180;7873;52.230;12.856;2023-10-31T02:52:25;98651.50;;;23.79
15544;BMP180;7873;52.230;12.856;2023-10-31T02:54:51;98656.44;;;23.82
15544;BMP180;7873;52.230;12.856;2023-10-31T02:57:19;98650.44;;;23.80
15544;BMP180;7873;52.230;12.856;2023-10-31T02:59:46;98643.66;;;23.77
15544;BMP180;7873;52.230;12.856;2023-10-31T03:02:12;98647.75;;;23.80
15544;BMP180;7873;52.230;12.856;2023-10-31T03:04:39;98639.13;;;23.78
15544;BMP180;7873;52.230;12.856;2023-10-31T03:07:05;98649.66;;;23.79
15544;BMP180;7873;52.230;12.856;2023-10-31T03:09:31;98644.50;;;23.78
15544;BMP180;7873;52.230;12.856;2023-10-31T03:11:58;98650.09;;;23.76
15544;BMP180;7873;52.230;12.856;2023-10-31T03:14:26;98647.41;;;23.76
15544;BMP180;7873;52.230;12.856;2023-10-31T03:16:52;98649.66;;;23.79
15544;BMP180;7873;52.230;12.856;2023-10-31T03:19:19;98648.59;;;23.80
15544;BMP180;7873;52.230;12.856;2023-10-31T03:21:45;98653.53;;;23.83
15544;BMP180;7873;52.230;12.856;2023-10-31T03:24:12;98654.59;;;23.83
15544;BMP180;7873;52.230;12.856;2023-10-31T03:26:38;98655.38;;;23.83
15544;BMP180;7873;52.230;12.856;2023-10-31T03:29:05;98652.47;;;23.84
15544;BMP180;7873;52.230;12.856;2023-10-31T03:31:32;98662.66;;;23.83
15544;BMP180;7873;52.230;12.856;2023-10-31T03:33:59;98652.94;;;23.82
15544;BMP180;7873;52.230;12.856;2023-10-31T03:36:25;98662.03;;;23.80
15544;BMP180;7873;52.230;12.856;2023-10-31T03:38:52;98663.53;;;23.76
15544;BMP180;7873;52.230;12.856;2023-10-31T03:41:18;98658.16;;;23.76
15544;BMP180;7873;52.230;12.856;2023-10-31T03:43:45;98655.34;;;23.72
15544;BMP180;7873;52.230;12.856;2023-10-31T03:46:12;98658.59;;;23.73
15544;BMP180;7873;52.230;12.856;2023-10-31T03:48:41;98652.91;;;23.70
15544;BMP180;7873;52.230;12.856;2023-10-31T03:51:07;98648.78;;;23.68
15544;BMP180;7873;52.230;12.856;2023-10-31T03:53:34;98665.97;;;23.67
15544;BMP180;7873;52.230;12.856;2023-10-31T03:56:00;98667.38;;;23.69
15544;BMP180;7873;52.230;12.856;2023-10-31T03:58:27;98656.06;;;23.67
15544;BMP180;7873;52.230;12.856;2023-10-31T04:00:52;98661.75;;;23.71
15544;BMP180;7873;52.230;12.856;2023-10-31T04:03:19;98654.75;;;23.70
15544;BMP180;7873;52.230;12.856;2023-10-31T04:05:47;98657.69;;;23.68
15544;BMP180;7873;52.230;12.856;2023-10-31T04:08:13;98653.94;;;23.69
15544;BMP180;7873;52.230;12.856;2023-10-31T04:10:39;98649.97;;;23.72
15544;BMP180;7873;52.230;12.856;2023-10-31T04:13:06;98649.38;;;23.70
15544;BMP180;7873;52.230;12.856;2023-10-31T04:15:32;98645.63;;;23.71
15544;BMP180;7873;52.230;12.856;2023-10-31T04:18:00;98637.59;;;23.71
15544;BMP180;7873;52.230;12.856;2023-10-31T04:20:26;98643.53;;;23.73
15544;BMP180;7873;52.230;12.856;2023-10-31T04:22:54;98653.69;;;23.71
15544;BMP180;7873;52.230;12.856;2023-10-31T04:25:20;98645.06;;;23.69
15544;BMP180;7873;52.230;12.856;2023-10-31T04:27:47;98639.69;;;23.69
15544;BMP180;7873;52.230;12.856;2023-10-31T04:30:15;98641.78;;;23.67
15544;BMP180;7873;52.230;12.856;2023-10-31T04:32:41;98637.59;;;23.71
15544;BMP180;7873;52.230;12.856;2023-10-31T04:35:08;98632.31;;;23.64
15544;BMP180;7873;52.230;12.856;2023-10-31T04:37:35;98637.25;;;23.67
15544;BMP180;7873;52.230;12.856;2023-10-31T04:40:03;98635.00;;;23.64
15544;BMP180;7873;52.230;12.856;2023-10-31T04:42:31;98631.97;;;23.61
15544;BMP180;7873;52.230;12.856;2023-10-31T04:44:58;98643.75;;;23.60
15544;BMP180;7873;52.230;12.856;2023-10-31T04:47:25;98643.19;;;23.58
15544;BMP180;7873;52.230;12.856;2023-10-31T04:49:51;98644.22;;;23.57
15544;BMP180;7873;52.230;12.856;2023-10-31T04:52:18;98647.97;;;23.56
15544;BMP180;7873;52.230;12.856;2023-10-31T04:54:45;98650.19;;;23.59
15544;BMP180;7873;52.230;12.856;2023-10-31T04:57:13;98645.41;;;23.61
15544;BMP180;7873;52.230;12.856;2023-10-31T04:59:39;98648.09;;;23.61
15544;BMP180;7873;52.230;12.856;2023-10-31T05:02:06;98645.41;;;23.61
15544;BMP180;7873;52.230;12.856;2023-10-31T05:04:32;98644.09;;;23.63
15544;BMP180;7873;52.230;12.856;2023-10-31T05:06:58;98639.78;;;23.62
15544;BMP180;7873;52.230;12.856;2023-10-31T05:09:26;98632.19;;;23.59
15544;BMP180;7873;52.230;12.856;2023-10-31T05:11:52;98634.66;;;23.61
15544;BMP180;7873;52.230;12.856;2023-10-31T05:14:20;98624.13;;;23.59
15544;BMP180;7873;52.230;12.856;2023-10-31T05:16:46;98633.00;;;23.60
15544;BMP180;7873;52.230;12.856;2023-10-31T05:19:13;98636.75;;;23.59
15544;BMP180;7873;52.230;12.856;2023-10-31T05:21:39;98627.66;;;23.60
15544;BMP180;7873;52.230;12.856;2023-10-31T05:24:07;98631.97;;;23.61
15544;BMP180;7873;52.230;12.856;2023-10-31T05:26:33;98632.44;;;23.58
15544;BMP180;7873;52.230;12.856;2023-10-31T05:29:00;98634.28;;;23.57
15544;BMP180;7873;52.230;12.856;2023-10-31T05:31:28;98639.28;;;23.54
15544;BMP180;7873;52.230;12.856;2023-10-31T05:33:55;98642.69;;;23.49
15544;BMP180;7873;52.230;12.856;2023-10-31T05:36:22;98645.38;;;23.49
15544;BMP180;7873;52.230;12.856;2023-10-31T05:38:49;98643.50;;;23.50
15544;BMP180;7873;52.230;12.856;2023-10-31T05:41:16;98641.03;;;23.48
15544;BMP180;7873;52.230;12.856;2023-10-31T05:43:42;98646.63;;;23.47
15544;BMP180;7873;52.230;12.856;2023-10-31T05:46:10;98652.25;;;23.45
15544;BMP180;7873;52.230;12.856;2023-10-31T05:48:40;98654.94;;;23.45
15544;BMP180;7873;52.230;12.856;2023-10-31T05:51:11;98658.44;;;23.46
15544;BMP180;7873;52.230;12.856;2023-10-31T05:53:39;98671.47;;;23.42
15544;BMP180;7873;52.230;12.856;2023-10-31T05:56:06;98663.22;;;23.44
15544;BMP180;7873;52.230;12.856;2023-10-31T05:58:33;98665.69;;;23.45
15544;BMP180;7873;52.230;12.856;2023-10-31T06:01:00;98664.25;;;23.43
15544;BMP180;7873;52.230;12.856;2023-10-31T06:03:26;98676.63;;;23.44
15544;BMP180;7873;52.230;12.856;2023-10-31T06:05:54;98682.00;;;23.44
15544;BMP180;7873;52.230;12.856;2023-10-31T06:08:20;98677.91;;;23.41
15544;BMP180;7873;52.230;12.856;2023-10-31T06:10:49;98675.81;;;23.43
15544;BMP180;7873;52.230;12.856;2023-10-31T06:13:16;98667.31;;;23.46
15544;BMP180;7873;52.230;12.856;2023-10-31T06:15:42;98672.44;;;23.48
15544;BMP180;7873;52.230;12.856;2023-10-31T06:18:09;98670.00;;;23.46
15544;BMP180;7873;52.230;12.856;2023-10-31T06:20:36;98670.00;;;23.46
15544;BMP180;7873;52.230;12.856;2023-10-31T06:23:03;98683.06;;;23.43
15544;BMP180;7873;52.230;12.856;2023-10-31T06:25:30;98672.22;;;23.49
15544;BMP180;7873;52.230;12.856;2023-10-31T06:27:56;98669.09;;;23.52
15544;BMP180;7873;52.230;12.856;2023-10-31T06:30:23;98676.88;;;23.54
15544;BMP180;7873;52.230;12.856;2023-10-31T06:32:50;98670.72;;;23.24
15544;BMP180;7873;52.230;12.856;2023-10-31T06:35:17;98680.66;;;23.05
15544;BMP180;7873;52.230;12.856;2023-10-31T06:37:43;98677.72;;;23.07
15544;BMP180;7873;52.230;12.856;2023-10-31T06:40:11;98686.78;;;23.12
15544;BMP180;7873;52.230;12.856;2023-10-31T06:42:38;98694.75;;;23.19
15544;BMP180;7873;52.230;12.856;2023-10-31T06:45:05;98691.88;;;23.32
15544;BMP180;7873;52.230;12.856;2023-10-31T06:47:32;98709.84;;;23.49
15544;BMP180;7873;52.230;12.856;2023-10-31T06:49:59;98715.25;;;23.61
15544;BMP180;7873;52.230;12.856;2023-10-31T06:52:25;98732.47;;;23.71
15544;BMP180;7873;52.230;12.856;2023-10-31T06:54:52;98737.91;;;23.83
15544;BMP180;7873;52.230;12.856;2023-10-31T06:57:20;98746.09;;;23.87
15544;BMP180;7873;52.230;12.856;2023-10-31T06:59:46;98756.28;;;23.97
15544;BMP180;7873;52.230;12.856;2023-10-31T07:02:12;98758.88;;;24.03
15544;BMP180;7873;52.230;12.856;2023-10-31T07:04:39;98763.91;;;24.11
15544;BMP180;7873;52.230;12.856;2023-10-31T07:07:06;98764.38;;;24.20
15544;BMP180;7873;52.230;12.856;2023-10-31T07:09:32;98768.16;;;24.30
15544;BMP180;7873;52.230;12.856;2023-10-31T07:11:58;98772.25;;;24.44
15544;BMP180;7873;52.230;12.856;2023-10-31T07:14:26;98775.13;;;24.61
15544;BMP180;7873;52.230;12.856;2023-10-31T07:16:53;98771.69;;;24.77
15544;BMP180;7873;52.230;12.856;2023-10-31T07:19:19;98779.19;;;24.98
15544;BMP180;7873;52.230;12.856;2023-10-31T07:21:46;98775.69;;;25.20
15544;BMP180;7873;52.230;12.856;2023-10-31T07:24:12;98789.31;;;25.42
15544;BMP180;7873;52.230;12.856;2023-10-31T07:26:39;98782.22;;;25.63
15544;BMP180;7873;52.230;12.856;2023-10-31T07:29:06;98798.53;;;25.85
15544;BMP180;7873;52.230;12.856;2023-10-31T07:31:34;98795.75;;;26.08
15544;BMP180;7873;52.230;12.856;2023-10-31T07:34:04;98803.97;;;26.29
15544;BMP180;7873;52.230;12.856;2023-10-31T07:36:30;98807.25;;;26.48
15544;BMP180;7873;52.230;12.856;2023-10-31T07:38:57;98817.91;;;26.71
15544;BMP180;7873;52.230;12.856;2023-10-31T07:41:24;98818.72;;;26.88
15544;BMP180;7873;52.230;12.856;2023-10-31T07:43:50;98821.25;;;27.11
15544;BMP180;7873;52.230;12.856;2023-10-31T07:46:17;98822.19;;;27.21
15544;BMP180;7873;52.230;12.856;2023-10-31T07:48:45;98824.00;;;27.37
15544;BMP180;7873;52.230;12.856;2023-10-31T07:51:12;98826.69;;;27.53
15544;BMP180;7873;52.230;12.856;2023-10-31T07:53:39;98829.81;;;27.67
15544;BMP180;7873;52.230;12.856;2023-10-31T07:56:14;98826.81;;;27.85
15544;BMP180;7873;52.230;12.856;2023-10-31T07:58:41;98848.66;;;27.78
15544;BMP180;7873;52.230;12.856;2023-10-31T08:01:07;98837.06;;;27.24
15544;BMP180;7873;52.230;12.856;2023-10-31T08:03:36;98854.53;;;26.83
15544;BMP180;7873;52.230;12.856;2023-10-31T08:06:05;98852.41;;;26.52
15544;BMP180;7873;52.230;12.856;2023-10-31T08:08:32;98849.81;;;26.57
15544;BMP180;7873;52.230;12.856;2023-10-31T08:10:59;98848.34;;;26.83
15544;BMP180;7873;52.230;12.856;2023-10-31T08:13:25;98857.78;;;27.02
15544;BMP180;7873;52.230;12.856;2023-10-31T08:15:52;98858.69;;;27.24
15544;BMP180;7873;52.230;12.856;2023-10-31T08:18:19;98845.41;;;27.38
15544;BMP180;7873;52.230;12.856;2023-10-31T08:20:45;98856.59;;;27.47
15544;BMP180;7873;52.230;12.856;2023-10-31T08:23:16;98874.84;;;27.56
15544;BMP180;7873;52.230;12.856;2023-10-31T08:25:43;98879.22;;;27.62
15544;BMP180;7873;52.230;12.856;2023-10-31T08:28:10;98874.72;;;27.68
15544;BMP180;7873;52.230;12.856;2023-10-31T08:30:37;98879.47;;;27.61
15544;BMP180;7873;52.230;12.856;2023-10-31T08:33:03;98885.78;;;27.66
15544;BMP180;7873;52.230;12.856;2023-10-31T08:35:30;98899.97;;;27.36
15544;BMP180;7873;52.230;12.856;2023-10-31T08:37:56;98899.97;;;27.36
15544;BMP180;7873;52.230;12.856;2023-10-31T08:40:25;98901.53;;;27.53
15544;BMP180;7873;52.230;12.856;2023-10-31T08:42:51;98908.56;;;27.70
15544;BMP180;7873;52.230;12.856;2023-10-31T08:45:18;98902.16;;;27.98
15544;BMP180;7873;52.230;12.856;2023-10-31T08:47:44;98906.50;;;28.20
15544;BMP180;7873;52.230;12.856;2023-10-31T08:50:11;98907.78;;;28.39
15544;BMP180;7873;52.230;12.856;2023-10-31T08:52:39;98902.06;;;28.62
15544;BMP180;7873;52.230;12.856;2023-10-31T08:55:06;98903.59;;;28.80
15544;BMP180;7873;52.230;12.856;2023-10-31T08:57:34;98904.03;;;28.98
15544;BMP180;7873;52.230;12.856;2023-10-31T09:00:00;98898.88;;;28.97
15544;BMP180;7873;52.230;12.856;2023-10-31T09:02:30;98894.16;;;29.18
15544;BMP180;7873;52.230;12.856;2023-10-31T09:04:56;98896.13;;;29.33
15544;BMP180;7873;52.230;12.856;2023-10-31T09:07:23;98896.28;;;29.48
15544;BMP180;7873;52.230;12.856;2023-10-31T09:09:49;98901.50;;;29.59
15544;BMP180;7873;52.230;12.856;2023-10-31T09:12:16;98904.09;;;29.44
15544;BMP180;7873;52.230;12.856;2023-10-31T09:14:44;98902.06;;;29.25
15544;BMP180;7873;52.230;12.856;2023-10-31T09:17:10;98928.31;;;29.19
15544;BMP180;7873;52.230;12.856;2023-10-31T09:19:37;98925.00;;;29.08
15544;BMP180;7873;52.230;12.856;2023-10-31T09:22:04;98928.13;;;28.95
15544;BMP180;7873;52.230;12.856;2023-10-31T09:24:30;98931.34;;;28.92
15544;BMP180;7873;52.230;12.856;2023-10-31T09:26:57;98929.72;;;28.91
15544;BMP180;7873;52.230;12.856;2023-10-31T09:29:23;98931.03;;;28.88
15544;BMP180;7873;52.230;12.856;2023-10-31T09:31:51;98929.84;;;28.79
15544;BMP180;7873;52.230;12.856;2023-10-31T09:34:17;98929.53;;;28.76
15544;BMP180;7873;52.230;12.856;2023-10-31T09:36:44;98930.72;;;28.58
15544;BMP180;7873;52.230;12.856;2023-10-31T09:39:10;98943.50;;;28.36
15544;BMP180;7873;52.230;12.856;2023-10-31T09:41:37;98932.97;;;28.18
15544;BMP180;7873;52.230;12.856;2023-10-31T09:44:04;98940.19;;;28.08
15544;BMP180;7873;52.230;12.856;2023-10-31T09:46:31;98948.97;;;27.98
15544;BMP180;7873;52.230;12.856;2023-10-31T09:48:59;98953.63;;;27.81
15544;BMP180;7873;52.230;12.856;2023-10-31T09:51:25;98954.53;;;27.70
15544;BMP180;7873;52.230;12.856;2023-10-31T09:53:54;98949.88;;;27.66
15544;BMP180;7873;52.230;12.856;2023-10-31T09:56:21;98963.94;;;27.68
15544;BMP180;7873;52.230;12.856;2023-10-31T09:58:48;98952.28;;;27.46
15544;BMP180;7873;52.230;12.856;2023-10-31T10:01:15;98955.09;;;27.72
15544;BMP180;7873;52.230;12.856;2023-10-31T10:03:41;98952.22;;;28.22
15544;BMP180;7873;52.230;12.856;2023-10-31T10:06:10;98967.22;;;28.29
15544;BMP180;7873;52.230;12.856;2023-10-31T10:08:37;98970.28;;;28.33
15544;BMP180;7873;52.230;12.856;2023-10-31T10:11:05;98960.63;;;28.42
15544;BMP180;7873;52.230;12.856;2023-10-31T10:13:32;98961.53;;;28.52
15544;BMP180;7873;52.230;12.856;2023-10-31T10:15:59;98965.38;;;28.56
15544;BMP180;7873;52.230;12.856;2023-10-31T10:18:26;98958.22;;;28.72
15544;BMP180;7873;52.230;12.856;2023-10-31T10:20:56;98969.59;;;28.95
15544;BMP180;7873;52.230;12.856;2023-10-31T10:23:26;98966.19;;;29.10
15544;BMP180;7873;52.230;12.856;2023-10-31T10:25:53;98966.03;;;29.21
15544;BMP180;7873;52.230;12.856;2023-10-31T10:28:20;98956.56;;;28.92
15544;BMP180;7873;52.230;12.856;2023-10-31T10:30:47;98949.66;;;29.11
15544;BMP180;7873;52.230;12.856;2023-10-31T10:33:14;98947.91;;;29.26
15544;BMP180;7873;52.230;12.856;2023-10-31T10:35:41;98956.66;;;29.38
15544;BMP180;7873;52.230;12.856;2023-10-31T10:38:10;98951.91;;;29.50
15544;BMP180;7873;52.230;12.856;2023-10-31T10:40:39;98939.16;;;29.56
15544;BMP180;7873;52.230;12.856;2023-10-31T10:43:12;98937.59;;;29.65
15544;BMP180;7873;52.230;12.856;2023-10-31T10:45:41;98932.75;;;29.72
15544;BMP180;7873;52.230;12.856;2023-10-31T10:48:11;98933.06;;;29.75
15544;BMP180;7873;52.230;12.856;2023-10-31T10:50:41;98932.00;;;29.81
15544;BMP180;7873;52.230;12.856;2023-10-31T10:53:13;98936.59;;;29.81
15544;BMP180;7873;52.230;12.856;2023-10-31T10:55:47;98937.88;;;29.68
15544;BMP180;7873;52.230;12.856;2023-10-31T10:58:22;98939.13;;;29.51
15544;BMP180;7873;52.230;12.856;2023-10-31T11:00:53;98937.09;;;29.31
15544;BMP180;7873;52.230;12.856;2023-10-31T11:03:21;98938.06;;;29.20
15544;BMP180;7873;52.230;12.856;2023-10-31T11:05:48;98930.16;;;28.83
15544;BMP180;7873;52.230;12.856;2023-10-31T11:08:15;98944.06;;;28.38
15544;BMP180;7873;52.230;12.856;2023-10-31T11:10:42;98941.47;;;28.27
15544;BMP180;7873;52.230;12.856;2023-10-31T11:13:11;98945.78;;;28.28
15544;BMP180;7873;52.230;12.856;2023-10-31T11:15:37;98944.13;;;28.43
15544;BMP180;7873;52.230;12.856;2023-10-31T11:18:05;98946.53;;;28.66
15544;BMP180;7873;52.230;12.856;2023-10-31T11:20:32;98954.81;;;28.86
15544;BMP180;7873;52.230;12.856;2023-10-31T11:23:01;98947.09;;;28.95
15544;BMP180;7873;52.230;12.856;2023-10-31T11:25:32;98951.25;;;29.07
15544;BMP180;7873;52.230;12.856;2023-10-31T11:28:12;98968.41;;;29.17
15544;BMP180;7873;52.230;12.856;2023-10-31T11:30:39;98967.91;;;29.20
15544;BMP180;7873;52.230;12.856;2023-10-31T11:33:11;98971.44;;;29.21
15544;BMP180;7873;52.230;12.856;2023-10-31T11:35:38;98981.19;;;29.22
15544;BMP180;7873;52.230;12.856;2023-10-31T11:38:07;98975.03;;;29.31
15544;BMP180;7873;52.230;12.856;2023-10-31T11:40:34;98989.75;;;29.40
15544;BMP180;7873;52.230;12.856;2023-10-31T11:43:03;98993.38;;;29.51
15544;BMP180;7873;52.230;12.856;2023-10-31T11:45:34;98988.59;;;29.63
15544;BMP180;7873;52.230;12.856;2023-10-31T11:48:01;98996.53;;;29.74
15544;BMP180;7873;52.230;12.856;2023-10-31T11:50:27;99006.66;;;29.89
15544;BMP180;7873;52.230;12.856;2023-10-31T11:53:05;99016.47;;;30.00
15544;BMP180;7873;52.230;12.856;2023-10-31T11:55:33;99019.84;;;30.12
15544;BMP180;7873;52.230;12.856;2023-10-31T11:58:17;99028.56;;;30.24
15544;BMP180;7873;52.230;12.856;2023-10-31T12:00:46;99029.19;;;30.36
15544;BMP180;7873;52.230;12.856;2023-10-31T12:03:15;99049.59;;;30.48
15544;BMP180;7873;52.230;12.856;2023-10-31T12:05:50;99047.22;;;30.57
15544;BMP180;7873;52.230;12.856;2023-10-31T12:08:24;99051.59;;;30.68
15544;BMP180;7873;52.230;12.856;2023-10-31T12:10:51;99051.91;;;30.76
15544;BMP180;7873;52.230;12.856;2023-10-31T12:13:17;99057.09;;;30.83
15544;BMP180;7873;52.230;12.856;2023-10-31T12:15:52;99053.84;;;30.91
15544;BMP180;7873;52.230;12.856;2023-10-31T12:18:19;99042.97;;;30.96
15544;BMP180;7873;52.230;12.856;2023-10-31T12:20:48;99039.19;;;31.02
15544;BMP180;7873;52.230;12.856;2023-10-31T12:23:15;99040.28;;;31.01
15544;BMP180;7873;52.230;12.856;2023-10-31T12:25:45;99038.91;;;31.03
15544;BMP180;7873;52.230;12.856;2023-10-31T12:28:16;99045.19;;;31.03
15544;BMP180;7873;52.230;12.856;2023-10-31T12:30:44;99057.69;;;31.04
15544;BMP180;7873;52.230;12.856;2023-10-31T12:33:13;99053.03;;;31.05
15544;BMP180;7873;52.230;12.856;2023-10-31T12:35:40;99065.00;;;31.04
15544;BMP180;7873;52.230;12.856;2023-10-31T12:38:07;99068.28;;;31.01
15544;BMP180;7873;52.230;12.856;2023-10-31T12:40:34;99062.03;;;31.01
15544;BMP180;7873;52.230;12.856;2023-10-31T12:43:00;99072.91;;;31.01
15544;BMP180;7873;52.230;12.856;2023-10-31T12:45:28;99083.75;;;30.96
15544;BMP180;7873;52.230;12.856;2023-10-31T12:48:01;99086.75;;;30.94
15544;BMP180;7873;52.230;12.856;2023-10-31T12:50:30;99085.13;;;30.93
15544;BMP180;7873;52.230;12.856;2023-10-31T12:52:57;99092.69;;;30.86
15544;BMP180;7873;52.230;12.856;2023-10-31T12:55:26;99093.50;;;30.82
15544;BMP180;7873;52.230;12.856;2023-10-31T12:57:53;99095.13;;;30.83
15544;BMP180;7873;52.230;12.856;2023-10-31T13:00:20;99094.84;;;30.79
15544;BMP180;7873;52.230;12.856;2023-10-31T13:02:52;99096.22;;;30.77
15544;BMP180;7873;52.230;12.856;2023-10-31T13:05:19;99101.59;;;30.72
15544;BMP180;7873;52.230;12.856;2023-10-31T13:07:50;99104.31;;;30.67
15544;BMP180;7873;52.230;12.856;2023-10-31T13:10:18;99102.38;;;30.62
15544;BMP180;7873;52.230;12.856;2023-10-31T13:12:44;99110.50;;;30.57
15544;BMP180;7873;52.230;12.856;2023-10-31T13:15:12;99123.25;;;30.52
15544;BMP180;7873;52.230;12.856;2023-10-31T13:17:39;99125.34;;;30.45
15544;BMP180;7873;52.230;12.856;2023-10-31T13:20:09;99130.47;;;30.36
15544;BMP180;7873;52.230;12.856;2023-10-31T13:22:36;99128.50;;;30.27
15544;BMP180;7873;52.230;12.856;2023-10-31T13:25:04;99130.66;;;30.20
15544;BMP180;7873;52.230;12.856;2023-10-31T13:27:33;99140.94;;;30.13
15544;BMP180;7873;52.230;12.856;2023-10-31T13:30:00;99145.25;;;30.09
15544;BMP180;7873;52.230;12.856;2023-10-31T13:32:27;99146.25;;;30.03
15544;BMP180;7873;52.230;12.856;2023-10-31T13:34:54;99148.34;;;29.96
15544;BMP180;7873;52.230;12.856;2023-10-31T13:37:20;99149.09;;;29.86
15544;BMP180;7873;52.230;12.856;2023-10-31T13:39:47;99158.81;;;29.77
15544;BMP180;7873;52.230;12.856;2023-10-31T13:42:15;99158.75;;;29.72
15544;BMP180;7873;52.230;12.856;2023-10-31T13:44:41;99152.47;;;29.67
15544;BMP180;7873;52.230;12.856;2023-10-31T13:47:08;99161.63;;;29.61
15544;BMP180;7873;52.230;12.856;2023-10-31T13:49:35;99164.28;;;29.56
15544;BMP180;7873;52.230;12.856;2023-10-31T13:52:02;99176.72;;;29.52
15544;BMP180;7873;52.230;12.856;2023-10-31T13:54:30;99182.09;;;29.47
15544;BMP180;7873;52.230;12.856;2023-10-31T13:56:57;99189.59;;;29.40
15544;BMP180;7873;52.230;12.856;2023-10-31T13:59:25;99190.03;;;29.32
15544;BMP180;7873;52.230;12.856;2023-10-31T14:01:51;99199.75;;;29.28
15544;BMP180;7873;52.230;12.856;2023-10-31T14:04:18;99199.72;;;29.23
15544;BMP180;7873;52.230;12.856;2023-10-31T14:06:45;99210.50;;;29.18
15544;BMP180;7873;52.230;12.856;2023-10-31T14:09:12;99205.31;;;29.17